createdAt,value
2019-03-22T00:00:01.138Z,3.53
2019-03-22T00:02:29.407Z,3.57
2019-03-22T00:04:58.557Z,4.03
2019-03-22T00:07:26.833Z,3.50
2019-03-22T00:09:55.089Z,3.80
2019-03-22T00:12:23.362Z,3.83
2019-03-22T00:14:51.641Z,4.13
2019-03-22T00:17:20.172Z,4.30
2019-03-22T00:19:48.703Z,3.43
2019-03-22T00:22:17.241Z,3.77
2019-03-22T00:24:45.503Z,3.83
2019-03-22T00:27:16.606Z,3.80
2019-03-22T00:29:43.808Z,4.17
2019-03-22T00:32:12.114Z,3.87
2019-03-22T00:34:40.360Z,3.73
2019-03-22T00:37:08.689Z,3.70
2019-03-22T00:39:37.221Z,3.50
2019-03-22T00:42:05.738Z,3.53
2019-03-22T00:44:33.987Z,3.60
2019-03-22T00:47:02.535Z,3.90
2019-03-22T00:49:30.846Z,3.73
2019-03-22T00:51:59.141Z,3.80
2019-03-22T00:54:27.562Z,4.30
2019-03-22T00:56:55.902Z,3.80
2019-03-22T00:59:24.438Z,4.43
2019-03-22T01:01:52.684Z,3.43
2019-03-22T01:04:20.968Z,3.80
2019-03-22T01:06:49.251Z,3.70
2019-03-22T01:09:17.520Z,4.20
2019-03-22T01:11:46.041Z,4.20
2019-03-22T01:14:14.539Z,4.33
2019-03-22T01:16:42.790Z,4.37
2019-03-22T01:19:11.068Z,4.23
2019-03-22T01:21:39.321Z,4.27
2019-03-22T01:24:07.640Z,4.43
2019-03-22T01:26:35.904Z,4.23
2019-03-22T01:29:04.461Z,3.90
2019-03-22T01:31:32.705Z,4.23
2019-03-22T01:34:01.023Z,4.00
2019-03-22T01:36:29.303Z,4.20
2019-03-22T01:38:57.575Z,4.20
2019-03-22T01:41:25.857Z,4.87
2019-03-22T01:43:54.369Z,4.17
2019-03-22T01:46:22.911Z,4.60
2019-03-22T01:48:51.226Z,4.30
2019-03-22T01:51:19.504Z,4.27
2019-03-22T01:53:47.758Z,4.33
2019-03-22T01:56:16.034Z,3.83
2019-03-22T01:58:44.298Z,4.10
2019-03-22T02:01:12.548Z,4.20
2019-03-22T02:03:40.817Z,4.67
2019-03-22T02:06:09.061Z,5.07
2019-03-22T02:08:37.328Z,4.60
2019-03-22T02:11:05.569Z,4.83
2019-03-22T02:13:33.841Z,4.87
2019-03-22T02:16:02.108Z,4.50
2019-03-22T02:18:30.353Z,4.73
2019-03-22T02:20:58.625Z,4.40
2019-03-22T02:23:26.980Z,4.17
2019-03-22T02:25:55.257Z,3.87
2019-03-22T02:28:23.523Z,3.97
2019-03-22T02:30:51.787Z,4.23
2019-03-22T02:33:20.281Z,3.70
2019-03-22T02:35:48.552Z,3.63
2019-03-22T02:38:16.870Z,4.30
2019-03-22T02:40:45.136Z,4.17
2019-03-22T02:43:13.406Z,4.10
2019-03-22T02:45:41.674Z,4.00
2019-03-22T02:48:10.174Z,3.37
2019-03-22T02:50:38.423Z,4.27
2019-03-22T02:53:06.714Z,3.70
2019-03-22T02:55:35.195Z,4.07
2019-03-22T02:58:19.337Z,3.80
2019-03-22T03:00:33.674Z,3.97
2019-03-22T03:03:01.945Z,3.60
2019-03-22T03:05:30.517Z,3.60
2019-03-22T03:07:58.780Z,4.10
2019-03-22T03:10:27.024Z,4.07
2019-03-22T03:12:55.297Z,4.27
2019-03-22T03:15:23.604Z,3.80
2019-03-22T03:17:51.851Z,3.87
2019-03-22T03:20:20.122Z,3.93
2019-03-22T03:22:48.397Z,3.73
2019-03-22T03:25:16.707Z,3.90
2019-03-22T03:27:45.211Z,3.73
2019-03-22T03:30:16.732Z,3.97
2019-03-22T03:32:45.001Z,4.30
2019-03-22T03:35:13.435Z,3.70
2019-03-22T03:37:41.667Z,3.60
2019-03-22T03:40:11.137Z,3.87
2019-03-22T03:42:39.407Z,4.00
2019-03-22T03:45:10.470Z,3.63
2019-03-22T03:47:38.716Z,3.90
2019-03-22T03:50:07.717Z,3.80
2019-03-22T03:52:39.398Z,3.97
2019-03-22T03:55:06.493Z,3.90
2019-03-22T03:57:34.830Z,4.37
2019-03-22T04:00:05.317Z,3.93
2019-03-22T04:02:33.805Z,4.30
2019-03-22T04:05:02.070Z,4.43
2019-03-22T04:07:30.558Z,4.10
2019-03-22T04:09:58.811Z,4.60
2019-03-22T04:12:27.061Z,4.70
2019-03-22T04:14:55.594Z,4.13
2019-03-22T04:17:24.082Z,4.03
2019-03-22T04:19:52.422Z,4.50
2019-03-22T04:22:20.899Z,4.50
2019-03-22T04:24:49.173Z,4.33
2019-03-22T04:27:17.663Z,4.40
2019-03-22T04:29:45.991Z,4.67
2019-03-22T04:32:14.353Z,4.00
2019-03-22T04:34:42.633Z,4.30
2019-03-22T04:37:11.109Z,4.17
2019-03-22T04:39:39.443Z,4.30
2019-03-22T04:42:07.722Z,4.10
2019-03-22T04:44:35.984Z,4.77
2019-03-22T04:47:04.225Z,4.63
2019-03-22T04:49:32.934Z,4.47
2019-03-22T04:52:01.201Z,4.27
2019-03-22T04:54:29.690Z,4.40
2019-03-22T04:56:57.954Z,4.60
2019-03-22T04:59:26.207Z,4.40
2019-03-22T05:01:54.554Z,4.60
2019-03-22T05:04:22.973Z,4.90
2019-03-22T05:06:51.241Z,4.63
2019-03-22T05:09:19.491Z,4.30
2019-03-22T05:11:47.990Z,4.20
2019-03-22T05:14:16.511Z,4.50
2019-03-22T05:16:44.993Z,5.30
2019-03-22T05:19:13.255Z,5.17
2019-03-22T05:21:41.498Z,4.77
2019-03-22T05:24:09.764Z,5.07
2019-03-22T05:26:38.081Z,5.27
2019-03-22T05:29:06.416Z,4.93
2019-03-22T05:31:40.885Z,5.27
2019-03-22T05:34:09.167Z,4.77
2019-03-22T05:36:37.430Z,5.07
2019-03-22T05:39:07.916Z,5.00
2019-03-22T05:41:36.179Z,5.00
2019-03-22T05:44:04.441Z,4.57
2019-03-22T05:46:32.692Z,4.77
2019-03-22T05:49:00.989Z,5.03
2019-03-22T05:51:29.241Z,5.30
2019-03-22T05:53:57.507Z,5.00
2019-03-22T05:56:25.831Z,5.37
2019-03-22T05:58:54.339Z,5.57
2019-03-22T06:01:22.602Z,5.40
2019-03-22T06:03:50.845Z,5.00
2019-03-22T06:06:19.371Z,4.80
2019-03-22T06:08:47.633Z,5.80
2019-03-22T06:11:15.913Z,5.00
2019-03-22T06:13:44.537Z,5.50
2019-03-22T06:16:13.150Z,5.30
2019-03-22T06:18:41.481Z,4.87
2019-03-22T06:21:09.777Z,5.40
2019-03-22T06:23:38.026Z,5.50
2019-03-22T06:26:06.298Z,5.40
2019-03-22T06:28:34.626Z,5.73
2019-03-22T06:31:02.899Z,5.80
2019-03-22T06:33:31.158Z,5.17
2019-03-22T06:35:59.468Z,5.63
2019-03-22T06:38:28.061Z,5.53
2019-03-22T06:40:56.357Z,5.10
2019-03-22T06:43:24.717Z,5.53
2019-03-22T06:45:53.009Z,5.63
2019-03-22T06:48:21.279Z,5.33
2019-03-22T06:50:49.519Z,5.50
2019-03-22T06:53:17.794Z,5.27
2019-03-22T06:55:46.036Z,5.20
2019-03-22T06:58:14.289Z,5.60
2019-03-22T07:00:42.822Z,5.73
2019-03-22T07:03:11.145Z,5.60
2019-03-22T07:05:39.397Z,5.43
2019-03-22T07:08:07.687Z,5.10
2019-03-22T07:10:36.190Z,5.67
2019-03-22T07:13:04.444Z,5.67
2019-03-22T07:15:32.763Z,5.20
2019-03-22T07:18:01.024Z,5.90
2019-03-22T07:20:29.521Z,5.60
2019-03-22T07:22:57.795Z,5.63
2019-03-22T07:25:26.021Z,5.93
2019-03-22T07:27:54.328Z,5.77
2019-03-22T07:30:22.633Z,5.97
2019-03-22T07:32:50.882Z,5.70
2019-03-22T07:35:19.153Z,6.40
2019-03-22T07:37:47.397Z,6.43
2019-03-22T07:40:15.645Z,6.20
2019-03-22T07:42:43.913Z,5.97
2019-03-22T07:45:12.217Z,6.30
2019-03-22T07:47:40.704Z,6.67
2019-03-22T07:50:11.150Z,6.00
2019-03-22T07:52:39.436Z,6.47
2019-03-22T07:55:07.759Z,6.97
2019-03-22T07:57:36.237Z,7.00
2019-03-22T08:00:09.685Z,7.00
2019-03-22T08:02:37.952Z,7.07
2019-03-22T08:05:06.964Z,7.27
2019-03-22T08:07:35.247Z,6.60
2019-03-22T08:10:08.029Z,6.93
2019-03-22T08:12:36.340Z,7.00
2019-03-22T08:15:08.133Z,7.57
2019-03-22T08:17:35.406Z,6.90
2019-03-22T08:20:05.289Z,7.00
2019-03-22T08:22:33.582Z,7.47
2019-03-22T08:25:02.007Z,7.50
2019-03-22T08:27:30.289Z,7.10
2019-03-22T08:29:58.534Z,7.17
2019-03-22T08:32:26.788Z,7.37
2019-03-22T08:34:55.314Z,6.97
2019-03-22T08:37:23.603Z,15.00
2019-03-22T08:39:52.200Z,10.20
2019-03-22T08:42:20.485Z,8.93
2019-03-22T08:44:48.996Z,10.23
2019-03-22T08:47:17.593Z,7.67
2019-03-22T08:49:46.098Z,8.20
2019-03-22T08:52:14.866Z,10.53
2019-03-22T08:54:43.209Z,7.57
2019-03-22T08:57:11.788Z,9.00
2019-03-22T08:59:40.273Z,8.77
2019-03-22T09:02:08.678Z,8.17
2019-03-22T09:04:37.123Z,8.83
2019-03-22T09:07:05.563Z,8.47
2019-03-22T09:09:41.353Z,8.53
2019-03-22T09:12:04.733Z,8.97
2019-03-22T09:14:33.154Z,30.23
2019-03-22T09:17:01.746Z,36.17
2019-03-22T09:19:30.427Z,35.03
2019-03-22T09:21:59.764Z,38.77
2019-03-22T09:24:38.562Z,39.83
2019-03-22T09:26:58.741Z,38.80
2019-03-22T09:29:27.077Z,33.90
2019-03-22T09:31:55.780Z,27.97
2019-03-22T09:34:33.597Z,25.93
2019-03-22T09:36:54.415Z,22.03
2019-03-22T09:39:22.937Z,21.73
2019-03-22T09:41:51.628Z,21.00
2019-03-22T09:44:20.249Z,22.00
2019-03-22T09:46:48.679Z,18.70
2019-03-22T09:49:17.009Z,18.10
2019-03-22T09:51:45.851Z,21.57
2019-03-22T09:54:14.548Z,24.00
2019-03-22T09:56:47.242Z,17.70
2019-03-22T09:59:13.333Z,18.93
2019-03-22T10:01:41.745Z,19.37
2019-03-22T10:04:10.150Z,17.03
2019-03-22T10:06:39.545Z,15.20
2019-03-22T10:09:08.374Z,16.23
2019-03-22T10:11:36.709Z,19.67
2019-03-22T10:14:05.122Z,15.83
2019-03-22T10:16:33.457Z,15.57
2019-03-22T10:19:02.009Z,13.83
2019-03-22T10:21:30.698Z,15.30
2019-03-22T10:23:59.283Z,12.93
2019-03-22T10:26:27.743Z,12.97
2019-03-22T10:28:57.298Z,12.80
2019-03-22T10:31:36.523Z,13.47
2019-03-22T10:33:56.371Z,13.47
2019-03-22T10:36:24.744Z,11.43
2019-03-22T10:38:53.333Z,12.73
2019-03-22T10:41:21.913Z,10.50
2019-03-22T10:43:50.468Z,12.83
2019-03-22T10:46:19.018Z,12.33
2019-03-22T10:48:47.723Z,10.60
2019-03-22T10:51:16.106Z,12.93
2019-03-22T10:53:44.987Z,11.03
2019-03-22T10:56:13.902Z,9.60
2019-03-22T10:58:43.010Z,10.43
2019-03-22T11:01:11.344Z,9.63
2019-03-22T11:03:39.983Z,10.73
2019-03-22T11:06:08.690Z,9.00
2019-03-22T11:08:37.055Z,8.13
2019-03-22T11:11:05.601Z,8.73
2019-03-22T11:13:33.983Z,8.50
2019-03-22T11:16:02.282Z,11.03
2019-03-22T11:18:37.391Z,8.60
2019-03-22T11:21:05.103Z,8.80
2019-03-22T11:23:31.197Z,6.90
2019-03-22T11:26:04.118Z,7.77
2019-03-22T11:28:30.142Z,6.83
2019-03-22T11:31:04.616Z,8.03
2019-03-22T11:33:29.331Z,6.63
2019-03-22T11:35:57.798Z,8.33
2019-03-22T11:38:26.555Z,7.73
2019-03-22T11:40:55.550Z,6.80
2019-03-22T11:43:25.626Z,6.73
2019-03-22T11:45:54.208Z,7.20
2019-03-22T11:48:22.882Z,7.50
2019-03-22T11:50:51.308Z,6.37
2019-03-22T11:53:19.585Z,6.80
2019-03-22T11:55:50.131Z,6.93
2019-03-22T11:58:19.156Z,6.40
2019-03-22T12:00:47.617Z,6.63
2019-03-22T12:03:16.105Z,6.83
2019-03-22T12:05:44.717Z,6.47
2019-03-22T12:08:13.226Z,6.97
2019-03-22T12:10:41.923Z,6.27
2019-03-22T12:13:10.578Z,6.90
2019-03-22T12:15:39.700Z,6.70
2019-03-22T12:18:08.041Z,6.30
2019-03-22T12:20:36.871Z,6.40
2019-03-22T12:23:06.307Z,6.17
2019-03-22T12:25:35.673Z,6.70
2019-03-22T12:28:04.461Z,7.20
2019-03-22T12:30:33.676Z,6.90
2019-03-22T12:33:02.165Z,7.07
2019-03-22T12:35:31.368Z,7.30
2019-03-22T12:38:00.366Z,6.90
2019-03-22T12:40:28.865Z,6.87
2019-03-22T12:42:57.860Z,96.23
2019-03-22T12:45:31.619Z,57.67
2019-03-22T12:47:59.998Z,37.17
2019-03-22T12:50:28.290Z,35.57
2019-03-22T12:52:56.895Z,35.67
2019-03-22T12:55:25.376Z,25.90
2019-03-22T12:57:54.643Z,31.30
2019-03-22T13:00:24.453Z,28.60
2019-03-22T13:02:53.778Z,35.03
2019-03-22T13:05:22.476Z,35.87
2019-03-22T13:07:51.682Z,27.03
2019-03-22T13:10:27.394Z,23.33
2019-03-22T13:12:56.194Z,21.00
2019-03-22T13:15:25.300Z,25.33
2019-03-22T13:17:53.766Z,23.93
2019-03-22T13:20:22.770Z,25.10
2019-03-22T13:22:52.647Z,26.57
2019-03-22T13:25:21.402Z,25.03
2019-03-22T13:27:49.934Z,28.30
2019-03-22T13:30:30.952Z,18.23
2019-03-22T13:32:59.703Z,25.03
2019-03-22T13:35:30.133Z,22.60
2019-03-22T13:37:58.496Z,28.60
2019-03-22T13:40:27.317Z,28.97
2019-03-22T13:42:56.184Z,27.47
2019-03-22T13:45:24.575Z,28.23
2019-03-22T13:47:53.436Z,31.07
2019-03-22T13:50:21.829Z,33.50
2019-03-22T13:52:50.737Z,36.63
2019-03-22T13:55:19.346Z,35.00
2019-03-22T13:57:48.668Z,36.43
2019-03-22T14:00:19.035Z,25.93
2019-03-22T14:02:47.458Z,38.40
2019-03-22T14:05:16.360Z,38.73
2019-03-22T14:07:44.800Z,45.77
2019-03-22T14:10:32.634Z,43.10
2019-03-22T14:13:02.536Z,44.63
2019-03-22T14:15:31.281Z,49.43
2019-03-22T14:18:00.031Z,46.73
2019-03-22T14:20:28.945Z,47.63
2019-03-22T14:22:58.137Z,53.40
2019-03-22T14:25:27.188Z,45.07
2019-03-22T14:27:56.762Z,47.47
2019-03-22T14:30:25.574Z,43.20
2019-03-22T14:32:54.932Z,44.43
2019-03-22T14:35:23.686Z,52.93
2019-03-22T14:37:52.060Z,49.47
2019-03-22T14:40:20.707Z,42.20
2019-03-22T14:42:49.550Z,58.43
2019-03-22T14:45:18.434Z,48.67
2019-03-22T14:47:47.277Z,43.37
2019-03-22T14:50:16.629Z,43.23
2019-03-22T14:52:45.391Z,47.20
2019-03-22T14:55:14.117Z,49.47
2019-03-22T14:57:49.046Z,49.07
2019-03-22T15:00:13.720Z,41.63
2019-03-22T15:02:42.795Z,38.93
2019-03-22T15:05:11.482Z,38.90
2019-03-22T15:07:40.363Z,42.47
2019-03-22T15:10:11.187Z,40.67
2019-03-22T15:12:39.925Z,43.93
2019-03-22T15:15:11.715Z,38.93
2019-03-22T15:17:58.236Z,37.60
2019-03-22T15:20:40.523Z,48.33
2019-03-22T15:23:13.522Z,40.73
2019-03-22T15:25:45.011Z,35.50
2019-03-22T15:28:30.421Z,36.60
2019-03-22T15:31:03.314Z,38.90
2019-03-22T15:33:36.285Z,36.77
2019-03-22T15:36:15.665Z,37.27
2019-03-22T15:38:46.145Z,38.80
2019-03-22T15:41:14.709Z,37.10
2019-03-22T15:43:43.843Z,35.20
2019-03-22T15:46:12.375Z,42.00
2019-03-22T15:48:41.197Z,38.60
2019-03-22T15:51:09.894Z,38.47
2019-03-22T15:53:38.244Z,40.10
2019-03-22T15:56:06.732Z,42.57
2019-03-22T15:58:36.289Z,41.50
2019-03-22T16:01:06.008Z,48.33
2019-03-22T16:03:43.817Z,35.90
2019-03-22T16:06:04.400Z,44.70
2019-03-22T16:08:33.258Z,40.60
2019-03-22T16:11:01.727Z,43.67
2019-03-22T16:13:30.423Z,39.83
2019-03-22T16:15:58.841Z,44.67
2019-03-22T16:18:27.983Z,38.33
2019-03-22T16:21:00.050Z,39.73
2019-03-22T16:23:26.946Z,45.40
2019-03-22T16:25:55.242Z,40.35
2019-03-22T16:28:24.480Z,43.53
2019-03-22T16:30:53.194Z,37.00
2019-03-22T16:33:21.685Z,43.13
2019-03-22T16:35:50.452Z,39.37
2019-03-22T16:38:18.811Z,37.73
2019-03-22T16:40:47.122Z,38.57
2019-03-22T16:43:15.435Z,37.77
2019-03-22T16:45:43.858Z,44.67
2019-03-22T16:48:12.287Z,32.97
2019-03-22T16:50:40.854Z,36.83
2019-03-22T16:53:09.575Z,40.90
2019-03-22T16:55:37.854Z,39.67
2019-03-22T16:58:06.150Z,38.00
2019-03-22T17:00:35.156Z,38.23
2019-03-22T17:03:03.838Z,34.77
2019-03-22T17:05:32.180Z,35.70
2019-03-22T17:08:00.554Z,37.20
2019-03-22T17:10:28.941Z,31.23
2019-03-22T17:12:57.339Z,32.53
2019-03-22T17:15:26.073Z,38.20
2019-03-22T17:17:54.489Z,36.10
2019-03-22T17:20:23.089Z,31.90
2019-03-22T17:22:51.761Z,38.90
2019-03-22T17:25:20.126Z,28.57
2019-03-22T17:27:48.482Z,29.93
2019-03-22T17:30:16.787Z,39.63
2019-03-22T17:32:45.218Z,29.90
2019-03-22T17:35:13.953Z,35.80
2019-03-22T17:37:42.245Z,27.47
2019-03-22T17:40:10.631Z,28.63
2019-03-22T17:42:38.982Z,25.63
2019-03-22T17:45:09.445Z,26.50
2019-03-22T17:47:37.998Z,29.43
2019-03-22T17:50:07.328Z,26.77
2019-03-22T17:52:35.666Z,26.63
2019-03-22T17:55:06.066Z,27.37
2019-03-22T17:57:34.403Z,24.40
2019-03-22T18:00:03.356Z,20.53
2019-03-22T18:02:32.834Z,24.63
2019-03-22T18:05:01.499Z,21.30
2019-03-22T18:07:30.130Z,17.43
2019-03-22T18:09:58.466Z,22.97
2019-03-22T18:12:26.980Z,19.27
2019-03-22T18:14:55.258Z,24.13
2019-03-22T18:17:23.542Z,21.13
2019-03-22T18:19:52.005Z,18.30
2019-03-22T18:22:20.285Z,24.00
2019-03-22T18:24:48.575Z,17.10
2019-03-22T18:27:16.915Z,18.07
2019-03-22T18:29:45.257Z,16.87
2019-03-22T18:32:13.677Z,23.17
2019-03-22T18:34:42.049Z,14.97
2019-03-22T18:37:10.456Z,16.43
2019-03-22T18:39:38.981Z,16.87
2019-03-22T18:42:07.245Z,16.60
2019-03-22T18:44:35.637Z,15.03
2019-03-22T18:47:04.254Z,17.20
2019-03-22T18:49:32.513Z,16.83
2019-03-22T18:52:01.104Z,20.13
2019-03-22T18:54:29.429Z,15.53
2019-03-22T18:56:57.937Z,16.83
2019-03-22T18:59:26.258Z,16.83
2019-03-22T19:01:54.576Z,15.83
2019-03-22T19:04:23.459Z,13.53
2019-03-22T19:06:51.788Z,15.00
2019-03-22T19:09:20.207Z,16.23
2019-03-22T19:11:48.461Z,13.23
2019-03-22T19:14:16.803Z,16.57
2019-03-22T19:16:45.313Z,14.93
2019-03-22T19:19:13.829Z,16.80
2019-03-22T19:21:42.092Z,13.70
2019-03-22T19:24:10.390Z,13.83
2019-03-22T19:26:38.651Z,12.93
2019-03-22T19:29:06.911Z,11.63
2019-03-22T19:31:35.220Z,12.10
2019-03-22T19:34:03.747Z,13.73
2019-03-22T19:36:32.080Z,14.67
2019-03-22T19:39:00.598Z,14.70
2019-03-22T19:41:28.950Z,14.13
2019-03-22T19:43:57.465Z,12.17
2019-03-22T19:46:25.707Z,12.77
2019-03-22T19:48:53.992Z,13.20
2019-03-22T19:51:22.273Z,12.77
2019-03-22T19:53:50.542Z,14.17
2019-03-22T19:56:18.862Z,14.10
2019-03-22T19:58:47.158Z,12.17
2019-03-22T20:01:15.414Z,11.07
2019-03-22T20:03:43.678Z,13.93
2019-03-22T20:06:11.933Z,11.97
2019-03-22T20:08:40.450Z,11.27
2019-03-22T20:11:08.712Z,12.23
2019-03-22T20:13:37.217Z,13.20
2019-03-22T20:16:05.473Z,13.73
2019-03-22T20:18:33.736Z,11.13
2019-03-22T20:21:02.025Z,12.20
2019-03-22T20:23:30.355Z,11.43
2019-03-22T20:25:58.885Z,12.47
2019-03-22T20:28:27.135Z,11.20
2019-03-22T20:30:55.409Z,14.70
2019-03-22T20:33:23.663Z,11.43
2019-03-22T20:35:51.935Z,11.43
2019-03-22T20:38:20.264Z,13.17
2019-03-22T20:40:48.532Z,11.63
2019-03-22T20:43:16.873Z,11.73
2019-03-22T20:45:45.145Z,11.93
2019-03-22T20:48:13.425Z,10.97
2019-03-22T20:50:41.687Z,10.30
2019-03-22T20:53:09.953Z,10.87
2019-03-22T20:55:38.221Z,11.60
2019-03-22T20:58:06.472Z,10.67
2019-03-22T21:00:34.758Z,10.63
2019-03-22T21:03:03.078Z,14.43
2019-03-22T21:05:31.416Z,11.53
2019-03-22T21:07:59.671Z,11.80
2019-03-22T21:10:28.000Z,11.07
2019-03-22T21:12:56.605Z,11.07
2019-03-22T21:15:25.020Z,10.47
2019-03-22T21:17:53.298Z,10.70
2019-03-22T21:20:21.544Z,11.23
2019-03-22T21:22:49.803Z,11.13
2019-03-22T21:25:18.321Z,10.83
2019-03-22T21:27:46.572Z,10.57
2019-03-22T21:30:15.313Z,10.07
2019-03-22T21:32:45.471Z,10.00
2019-03-22T21:35:22.007Z,10.47
2019-03-22T21:37:43.806Z,11.67
2019-03-22T21:40:12.057Z,10.37
2019-03-22T21:42:40.337Z,10.50
2019-03-22T21:45:09.771Z,11.00
2019-03-22T21:47:38.051Z,10.63
2019-03-22T21:50:06.942Z,11.87
2019-03-22T21:52:35.178Z,10.63
2019-03-22T21:55:03.440Z,10.90
2019-03-22T21:57:31.710Z,10.73
2019-03-22T21:59:59.981Z,10.23
2019-03-22T22:02:28.492Z,11.10
2019-03-22T22:04:56.784Z,11.27
2019-03-22T22:07:25.033Z,11.23
2019-03-22T22:09:53.281Z,10.30
2019-03-22T22:12:21.544Z,10.80
2019-03-22T22:14:49.820Z,10.20
2019-03-22T22:17:18.099Z,9.73
2019-03-22T22:19:46.440Z,10.73
2019-03-22T22:22:14.714Z,9.70
2019-03-22T22:24:43.184Z,11.17
2019-03-22T22:27:13.975Z,9.77
2019-03-22T22:29:41.525Z,9.80
2019-03-22T22:32:09.770Z,9.47
2019-03-22T22:34:38.289Z,10.00
2019-03-22T22:37:06.569Z,10.30
2019-03-22T22:39:34.849Z,10.43
2019-03-22T22:42:03.144Z,10.33
2019-03-22T22:44:31.418Z,9.77
2019-03-22T22:46:59.657Z,9.93
2019-03-22T22:49:27.942Z,9.27
2019-03-22T22:51:56.209Z,9.60
2019-03-22T22:54:24.481Z,9.80
2019-03-22T22:56:52.713Z,9.93
2019-03-22T22:59:20.998Z,9.77
2019-03-22T23:01:49.251Z,9.53
2019-03-22T23:04:17.486Z,9.87
2019-03-22T23:06:45.766Z,9.10
2019-03-22T23:09:14.048Z,9.40
2019-03-22T23:11:42.420Z,9.87
2019-03-22T23:14:10.684Z,10.07
2019-03-22T23:16:38.958Z,10.07
2019-03-22T23:19:07.233Z,10.33
2019-03-22T23:21:35.481Z,10.00
2019-03-22T23:24:03.795Z,9.77
2019-03-22T23:26:32.285Z,9.40
2019-03-22T23:29:00.788Z,9.30
2019-03-22T23:31:29.088Z,9.80
2019-03-22T23:33:57.432Z,9.27
2019-03-22T23:36:25.698Z,9.10
2019-03-22T23:38:54.001Z,10.17
2019-03-22T23:41:22.266Z,9.60
2019-03-22T23:43:50.553Z,10.17
2019-03-22T23:46:18.897Z,10.13
2019-03-22T23:48:47.158Z,9.77
2019-03-22T23:51:15.663Z,9.80
2019-03-22T23:53:43.909Z,9.67
2019-03-22T23:56:12.173Z,9.90
2019-03-22T23:58:40.457Z,9.37
